Weather observations for the past three days for
Port Aransas, Mustang Beach Airport
Metric (Imperial)
Date Time (cdt) Wind (kph) Vis. (km) Weather Sky Cond. Temperature (ºC) Relative Humidity Wind Chill (°C) Heat Index (°C) Pressure Precipitation (cm)
Air Dwpt 6 hour altimeter (cm) sea level (mb) 1 hr 3 hr 6 hr
Max. Min.
02 17:15 NE 17 16.09 Partly Cloudy SCT049 23.7 11.3 46% 76.45 0.0
02 16:55 NE 26 16.09 Partly Cloudy SCT047 23.3 11.5 48% 76.45 0.0
02 16:35 NE 24 16.09 Fair CLR 23.5 11.1 46% 76.45 0.0
02 16:15 NE 24 16.09 Partly Cloudy SCT045 23.4 11.6 48% 76.48 0.0
02 15:55 NE 24 G 39 16.09 Fair CLR 23.3 11.7 48% 76.5 0.0
02 15:35 NE 26 G 35 16.09 Fair CLR 23.2 10.8 46% 76.5 0.0
02 15:15 NE 26 G 33 16.09 Fair CLR 23.1 10.9 46% 76.5 0.0
02 14:55 NE 28 G 37 16.09 Fair CLR 23 11.1 47% 76.53 0.0
02 14:35 NE 26 G 37 16.09 Fair CLR 22.9 11.2 48% 76.53 0.0
02 14:15 NE 30 G 37 16.09 Fair CLR 22.8 11.4 49% 76.53 0.0
02 13:55 NE 24 16.09 Fair CLR 22.7 11.4 49% 76.53 0.0
02 13:35 NE 24 G 37 16.09 Fair CLR 22.3 11.8 52% 76.56 0.0
02 13:15 NE 26 G 43 16.09 Fair CLR 22.1 12.2 54% 76.56 0.0
02 12:55 NE 26 G 33 16.09 Fair CLR 21.6 11.1 22.1 14.8 51% 76.58 0.0
02 12:35 NE 26 16.09 Fair CLR 21.1 11.5 54% 76.58 0.0
02 12:15 N 30 G 37 16.09 Fair CLR 20.3 12.1 59% 76.58 0.0
02 11:55 N 26 16.09 Fair CLR 19.8 12.3 62% 76.58 0.0
02 11:35 N 28 G 33 16.09 Partly Cloudy SCT020 19 12.7 67% 76.61 0.0
02 11:15 N 26 G 31 16.09 Mostly Cloudy BKN020 18.2 12.5 70% 76.61 0.0
02 10:55 N 26 G 43 16.09 Overcast OVC018 18 12.5 70% 76.58 0.0
02 10:35 N 28 G 35 16.09 Overcast OVC018 18 13.1 73% 76.56 0.0
02 10:15 N 30 G 35 16.09 Overcast OVC016 17.1 12.9 76% 76.56 0.0
02 09:55 N 33 G 41 16.09 Overcast and Breezy OVC014 16.8 12.9 78% 76.53 0.0
02 09:35 N 35 16.09 Overcast and Breezy OVC014 16.4 13 80% 76.5 0.0
02 09:15 N 30 16.09 Overcast OVC012 16.1 12.8 81% 76.45 0.0
02 08:55 N 35 G 50 16.09 Overcast and Breezy OVC012 16.1 13.1 83% 76.43 0.0
02 08:35 N 41 G 48 16.09 Overcast and Breezy OVC012 16 13.2 84% 76.4 0.0
02 08:15 N 39 G 46 16.09 Overcast and Breezy OVC012 15.6 13.2 86% 76.4 0.0
02 07:55 N 39 16.09 Overcast and Breezy OVC010 15.3 13 86% 76.38 0.0
02 07:35 N 37 G 44 16.09 Overcast and Breezy OVC010 15.2 13 87% 76.38 0.0
02 07:15 N 30 16.09 Overcast OVC010 15.1 13 87% 76.35 0.0
02 06:55 N 31 16.09 Overcast OVC008 14.8 12.9 16.9 14.6 89% 76.33 0.0
02 06:35 N 28 G 35 16.09 Overcast OVC008 14.7 12.8 88% 76.33 0.0
02 06:15 N 31 16.09 Overcast OVC008 14.9 12.9 88% 76.3 0.0
02 05:55 N 28 16.09 Overcast OVC008 14.9 13 89% 76.3 0.0
02 05:35 N 24 16.09 Overcast OVC008 15 13 88% 76.3 0.0
02 05:15 N 24 16.09 Overcast OVC008 15 13.1 89% 76.3 0.0
02 04:55 N 20 16.09 Overcast OVC008 15.1 13.1 88% 76.3 0.0
02 04:35 N 24 16.09 Overcast OVC008 15.2 13.2 88% 76.28 0.0
02 04:15 N 28 16.09 Overcast OVC010 15.6 13.6 88% 76.25 0.0
02 03:55 N 24 G 35 16.09 Overcast OVC010 15.7 13.5 87% 76.25 0.0
02 03:35 N 31 16.09 Overcast OVC010 15.7 13.5 87% 76.25 0.0
02 03:15 N 30 16.09 Overcast OVC011 16.1 13.8 86% 76.23 0.0
02 02:55 N 31 16.09 Overcast OVC011 16.2 13.8 86% 76.2 0.0
02 02:35 N 22 16.09 Overcast OVC013 16.2 13.6 85% 76.23 0.0
02 02:15 N 28 G 44 16.09 Overcast BKN013 OVC018 16.2 13.5 84% 76.2 0.0
02 01:55 N 33 16.09 Overcast and Breezy BKN015 OVC019 16.7 13.7 83% 76.23 0.0
02 01:35 N 35 16.09 Overcast and Breezy OVC013 16.8 14.2 85% 76.23 0.0
02 01:15 N 33 G 41 16.09 Overcast and Breezy OVC011 16.9 14.4 85% 76.2 0.0
02 00:55 N 37 G 50 16.09 Overcast and Breezy OVC011 16.9 14.6 19.4 16.8 86% 76.17 0.0
02 00:35 N 39 G 46 16.09 Overcast and Breezy OVC011 17.2 15 87% 76.15 0.0
02 00:15 N 37 G 44 16.09 Overcast and Breezy OVC011 17.4 15.3 88% 76.15 0.0
01 23:55 N 33 16.09 Overcast and Breezy OVC011 17.5 15.4 88% 76.12 0.0
01 23:35 N 37 G 44 16.09 Overcast and Breezy OVC011 17.8 15.6 87% 76.1 0.0
01 23:15 N 41 G 48 16.09 Overcast and Breezy OVC011 18.1 15.9 87% 76.07 0.0
01 22:55 N 37 G 48 16.09 Overcast and Breezy OVC013 18.4 16 86% 76.02 0.0
01 22:35 N 43 G 52 16.09 Overcast and Windy OVC013 18.4 16 86% 76.02 0.0
01 22:15 N 37 G 50 16.09 Overcast and Breezy OVC013 18.6 16.1 85% 76 0.0
01 21:55 N 39 G 54 16.09 Overcast and Breezy OVC013 18.6 16.1 85% 75.92 0.0
01 21:35 N 46 G 56 16.09 Overcast and Windy OVC013 18.6 16.1 85% 75.9 0.0
01 21:15 N 43 G 56 16.09 Overcast and Windy BKN013 OVC075 18.7 16.1 85% 75.84 0.0
01 20:55 N 43 G 54 16.09 Overcast and Windy OVC013 18.8 16.4 86% 75.84 0.0
01 20:15 N 43 G 61 16.09 Overcast and Windy OVC013 18.7 16.6 88% 75.82 0.0
01 19:55 N 43 G 63 16.09 Overcast and Windy OVC013 18.8 16.8 88% 75.79 0.0
01 19:35 N 44 G 59 16.09 Overcast and Windy BKN013 OVC060 19.2 17.2 88% 75.79 0.0
01 19:15 N 48 G 57 16.09 Thunderstorm in Vicinity and Windy OVC011 19.3 17.6 90% 75.74 0.0
01 18:55 N 43 G 59 16.09 Thunderstorm and Windy SCT007 OVC011 19.4 18 23.4 19.2 92% 75.74 0.0 0.46 0.56
01 18:35 N 41 G 56 16.09 Thunderstorm in Vicinity and Breezy BKN007 BKN070 19.5 18.4 93% 75.69 0.0 0.46
01 18:15 N 50 G 61 2.01 Heavy Rain Fog/Mist and Windy OVC009 20.2 18.8 92% 75.64 0.0 0.41
01 17:55 N 31 16.09 Thunderstorm in Vicinity BKN009 OVC031 20.1 18.8 92% 75.51 0.0
01 17:35 NE 26 G 39 11.27 Overcast BKN007 BKN014 OVC031 20.1 18.8 92% 75.51 0.0
01 17:15 N 30 G 44 6.44 Light Drizzle Fog/Mist OVC009 20 18.8 93% 75.57 0.0
01 16:55 N 31 G 37 11.27 Fog/Mist OVC009 20 19 94% 75.59 0.0
01 16:35 N 30 G 39 8.05 Thunderstorm Fog/Mist in Vicinity SCT007 OVC013 20.3 18.9 92% 75.54 0.0
01 16:15 N 31 16.09 Overcast BKN011 OVC020 20.6 19.2 92% 75.54 0.0
01 15:55 N 31 16.09 Thunderstorm in Vicinity SCT009 OVC018 20.8 19.4 92% 75.57 0.0 0.03 0.1
01 15:35 N 37 G 43 11.27 Overcast and Breezy SCT008 OVC014 20.9 19.6 92% 75.54 0.0 0.03
01 15:15 N 31 11.27 Overcast BKN006 OVC014 21.5 20.3 93% 75.54 0.0
01 14:55 N 22 11.27 Overcast BKN008 OVC017 21.9 20.6 92% 75.57 0.0 0.05
01 14:35 N 24 16.09 Overcast SCT008 OVC015 21.9 20.6 92% 75.57 0.0 0.05
01 14:15 NE 20 11.27 Drizzle SCT008 OVC017 21.8 20.4 92% 75.49 0.0 0.05
01 13:55 NE 22 16.09 Light Drizzle BKN010 OVC016 22.2 20.4 90% 75.54 0.0
01 13:35 N 26 G 33 16.09 Overcast BKN010 BKN017 OVC026 22.9 20.8 88% 75.54 0.0
01 13:15 N 20 16.09 Overcast OVC010 23.1 21.1 89% 75.54 0.0
01 12:55 N 24 16.09 Overcast OVC010 23.3 21.3 25.6 22.5 89% 75.57 0.0 0.15
01 12:35 N 28 16.09 Overcast OVC010 23.6 21.8 90% 75.59 0.0
01 12:15 N 30 16.09 Overcast OVC008 23.7 22.1 91% 75.62 0.0
01 11:55 NE 20 16.09 Light Rain OVC008 23.4 22 92% 75.64 0.0
01 11:35 N 19 16.09 Overcast BKN008 BKN012 OVC017 23.4 22.1 92% 75.69 0.0
01 11:15 N 19 16.09 Overcast SCT015 BKN025 OVC037 23.6 22.2 92% 75.72 0.0
01 10:55 N 20 16.09 Overcast SCT010 BKN019 OVC033 23.2 21.8 92% 75.69 0.0 0.03
01 10:35 N 22 16.09 Overcast BKN010 OVC014 22.6 21.2 92% 75.69 0.0 0.03
01 10:15 N 24 G 39 16.09 Light Rain SCT007 BKN012 OVC021 22.6 21.2 92% 75.69 0.0 0.03
01 09:55 N 26 6.44 Light Rain Fog/Mist BKN007 BKN012 OVC017 22.8 21.3 91% 75.67 0.0 0.13 0.13
01 09:35 N 30 G 37 16.09 Overcast BKN011 BKN019 OVC037 23.1 21.3 90% 75.69 0.0
01 09:15 N 30 11.27 Fog/Mist BKN011 BKN016 OVC027 23.4 21.4 89% 75.69 0.0
01 08:55 NE 13 16.09 Mostly Cloudy BKN011 BKN029 BKN085 25.5 22.7 85% 27 75.72 0.0
01 08:35 NE 9 16.09 Mostly Cloudy SCT011 SCT029 BKN042 25.5 22.7 85% 27 75.74 0.0
01 08:15 NE 9 16.09 Overcast SCT013 BKN065 OVC090 25.5 22.7 85% 27 75.74 0.0
01 07:55 E 13 16.09 Overcast SCT013 SCT017 OVC090 25.6 22.7 84% 27 75.69 0.0
01 07:35 E 15 16.09 Overcast BKN013 BKN017 OVC070 25.5 22.6 84% 27 75.69 0.0
01 07:15 E 15 16.09 Overcast BKN013 BKN029 OVC090 25.5 22.7 85% 27 75.67 0.0
01 06:55 E 19 16.09 Mostly Cloudy SCT013 BKN095 25.3 22.6 25.8 25.3 85% 26 75.62 0.0
01 06:35 E 17 16.09 Mostly Cloudy SCT013 BKN085 BKN110 25.5 22.4 83% 27 75.64 0.0
01 06:15 E 19 16.09 Mostly Cloudy SCT013 SCT021 BKN085 25.5 22.4 83% 27 75.62 0.0
01 05:55 E 19 16.09 Mostly Cloudy SCT013 SCT021 BKN085 25.4 22.5 84% 27 75.62 0.0
01 05:35 E 19 16.09 Mostly Cloudy SCT011 BKN085 25.4 22.6 85% 27 75.62 0.0
01 05:15 E 19 16.09 Partly Cloudy SCT011 SCT120 25.4 22.6 85% 27 75.62 0.0
01 04:55 E 15 16.09 Partly Cloudy SCT013 SCT120 25.4 22.6 85% 27 75.64 0.0
01 04:35 E 19 16.09 Partly Cloudy SCT014 SCT018 SCT120 25.4 22.5 84% 27 75.64 0.0
01 04:15 E 15 16.09 Mostly Cloudy SCT012 SCT021 BKN120 25.5 22.6 84% 27 75.64 0.0
01 03:55 E 17 16.09 Mostly Cloudy SCT012 SCT024 BKN095 25.5 22.6 84% 27 75.64 0.0
01 03:35 E 15 16.09 Mostly Cloudy SCT012 BKN028 BKN100 25.5 22.5 84% 27 75.67 0.0
01 03:15 E 13 16.09 Overcast SCT012 OVC095 25.5 22.6 84% 27 75.64 0.0
01 02:55 E 17 16.09 Partly Cloudy SCT095 25.5 22.7 85% 27 75.64 0.0
01 02:35 SE 24 16.09 Fair CLR 25.4 22.5 84% 27 75.62 0.0
01 02:15 E 20 16.09 Fair CLR 25.4 22.6 85% 27 75.62 0.0
01 01:55 SE 22 G 28 16.09 Fair CLR 25.6 22.5 83% 27 75.64 0.0
01 01:35 E 24 16.09 Fair CLR 25.6 22.5 83% 27 75.64 0.0
01 01:15 SE 20 16.09 Fair CLR 25.7 22.6 83% 27 75.67 0.0
01 00:55 SE 20 16.09 Fair CLR 25.7 22.4 27 25.7 82% 27 75.67 0.0
01 00:35 SE 22 16.09 Fair CLR 25.9 22.6 82% 28 75.69 0.0
30 23:55 SE 22 16.09 Fair CLR 26 22.6 82% 28 75.69 0.0
30 23:35 E 24 16.09 Fair CLR 26.1 22.6 81% 28 75.67 0.0
30 23:15 E 22 16.09 Fair CLR 26 22.7 82% 28 75.69 0.0
30 22:55 E 24 16.09 Fair CLR 26 22.8 83% 28 75.72 0.0
30 22:35 E 24 16.09 Fair CLR 26 23 84% 28 75.72 0.0
30 22:15 E 22 16.09 Partly Cloudy SCT012 26.2 23.2 84% 28 75.72 0.0
30 21:55 E 19 16.09 Partly Cloudy SCT012 26.1 23.3 85% 28 75.72 0.0
30 21:35 E 22 16.09 Partly Cloudy SCT010 26.1 23.4 85% 28 75.64 0.0
30 21:15 E 19 16.09 Mostly Cloudy BKN010 26.2 23.4 85% 28 75.64 0.0
30 20:55 E 20 16.09 Partly Cloudy SCT012 26.3 23.3 84% 28 75.62 0.0
30 20:35 E 19 16.09 Partly Cloudy SCT012 26.4 23.3 83% 29 75.59 0.0
30 20:15 E 19 16.09 Partly Cloudy SCT012 26.4 23.3 83% 29 75.59 0.0
30 19:55 E 15 16.09 Partly Cloudy SCT012 26.5 23.2 82% 29 75.59 0.0
30 19:35 E 15 16.09 Partly Cloudy SCT012 26.7 23.3 82% 29 75.57 0.0
30 19:15 E 19 16.09 Partly Cloudy SCT012 26.7 23.1 81% 29 75.57 0.0
30 18:55 E 17 16.09 Partly Cloudy SCT012 26.9 23.4 28.9 26.8 81% 30 75.57 0.0
30 18:35 E 17 16.09 Partly Cloudy SCT012 27 23.3 80% 30 75.54 0.0
30 18:15 SE 20 16.09 Mostly Cloudy BKN010 27.1 23.4 80% 30 75.51 0.0
30 17:55 SE 19 16.09 Partly Cloudy SCT010 27.3 23.7 81% 31 75.51 0.0
30 17:35 SE 19 16.09 Partly Cloudy SCT011 27.4 23.7 80% 31 75.49 0.0
30 17:15 SE 22 16.09 Partly Cloudy SCT011 27.6 23.6 79% 31 75.51 0.0
30 16:55 SE 17 16.09 Mostly Cloudy BKN011 BKN043 27.8 23.9 79% 32 75.54 0.0
30 16:35 E 17 16.09 Mostly Cloudy BKN011 BKN016 BKN043 28.1 23.9 78% 32 75.57 0.0
30 16:15 E 15 16.09 Mostly Cloudy BKN011 BKN016 BKN045 28.2 23.9 78% 32 75.57 0.0
30 15:55 E 19 16.09 Partly Cloudy SCT011 27.9 23.8 78% 32 75.59 0.0
30 15:35 SE 20 16.09 Fair CLR 28.2 23.9 78% 32 75.59 0.0
30 15:15 SE 17 16.09 Partly Cloudy SCT044 28.2 23.6 76% 32 75.62 0.0
30 14:55 SE 19 16.09 Mostly Cloudy BKN044 28.3 23.7 76% 32 75.64 0.0
30 14:35 SE 19 16.09 Partly Cloudy SCT011 SCT023 SCT044 28.3 23.8 77% 32 75.64 0.0
30 14:15 SE 19 16.09 Mostly Cloudy BKN011 BKN017 BKN045 28.5 24.1 77% 33 75.67 0.0
30 13:55 E 17 16.09 Overcast BKN013 OVC020 28.1 23.9 78% 32 75.67 0.0
30 13:35 E 15 16.09 Mostly Cloudy SCT017 BKN036 BKN045 28.1 23.9 78% 32 75.69 0.0
30 13:15 E 17 16.09 Mostly Cloudy BKN044 28.2 23.7 77% 32 75.72 0.0
30 12:55 E 13 16.09 Partly Cloudy SCT040 27.8 23.6 28.2 25.3 78% 31 75.74 0.0
30 12:35 E 17 16.09 Partly Cloudy SCT036 27.9 23.8 78% 32 75.74 0.0
30 12:15 SE 11 16.09 Mostly Cloudy SCT011 BKN036 27.4 23.9 81% 31 75.79 0.0
30 11:55 E 11 16.09 Mostly Cloudy SCT011 BKN036 27.2 23.8 82% 30 75.79 0.0
30 11:35 SE 11 16.09 Partly Cloudy SCT011 SCT020 SCT035 27.3 23.7 81% 31 75.77 0.0
30 11:15 E 9 16.09 Partly Cloudy SCT022 SCT037 27.4 23.7 80% 31 75.79 0.0
30 10:55 E 13 16.09 Fair CLR 27.7 23.8 79% 31 75.77 0.0
30 10:35 E 11 16.09 Partly Cloudy SCT036 27.2 23.5 80% 30 75.79 0.0
30 10:15 SE 11 16.09 Mostly Cloudy SCT025 BKN034 27 23.4 81% 30 75.77 0.0
30 09:55 SE 7 16.09 Mostly Cloudy BKN031 BKN037 26.5 23.3 83% 29 75.82 0.0
30 09:35 E 9 16.09 Mostly Cloudy BKN032 26.5 23.2 82% 29 75.79 0.0
30 09:15 E 9 16.09 Overcast SCT018 SCT025 OVC030 26.4 23.3 83% 29 75.79 0.0
30 08:55 E 7 16.09 Overcast BKN018 OVC026 26.2 23.2 84% 28 75.79 0.0
30 08:35 E 7 16.09 Overcast BKN022 OVC028 26.2 23.1 83% 28 75.79 0.0
30 08:15 SE 7 16.09 Overcast SCT016 BKN022 OVC026 25.9 23.2 85% 28 75.77 0.0
30 07:55 E 7 16.09 Overcast BKN014 OVC021 25.7 23 85% 27 75.77 0.0
30 07:35 E 7 16.09 Mostly Cloudy SCT012 BKN019 25.5 23 86% 27 75.72 0.0
30 07:15 E 11 16.09 Mostly Cloudy SCT010 BKN021 25.4 23.2 88% 27 75.69 0.0
30 06:55 E 15 16.09 Mostly Cloudy SCT010 SCT015 BKN021 25.4 23.1 25.5 25.3 87% 27 75.64 0.0
30 06:35 E 15 16.09 Mostly Cloudy SCT013 BKN021 25.3 22.9 87% 26 75.67 0.0
30 06:15 E 15 16.09 Partly Cloudy SCT011 SCT021 25.3 22.9 87% 26 75.67 0.0
30 05:55 E 11 16.09 Mostly Cloudy SCT011 BKN021 25.4 22.9 86% 27 75.72 0.0
30 05:35 E 9 16.09 Overcast SCT013 OVC021 25.4 22.8 86% 27 75.72 0.0
30 05:15 SE 9 16.09 Overcast BKN011 OVC019 25.4 23 87% 27 75.72 0.0
30 04:55 SE 13 16.09 Overcast BKN013 OVC018 25.4 22.9 86% 27 75.74 0.0
30 04:35 E 13 16.09 Mostly Cloudy BKN013 25.4 23.1 87% 27 75.72 0.0
30 04:15 SE 13 16.09 Partly Cloudy SCT015 25.3 22.9 87% 26 75.72 0.0
30 03:55 SE 19 16.09 Mostly Cloudy BKN015 25.3 22.9 87% 26 75.72 0.0
30 03:35 SE 19 16.09 Mostly Cloudy BKN013 25.3 22.9 87% 26 75.69 0.0
30 03:15 SE 17 16.09 Overcast OVC013 25.4 22.9 86% 27 75.74 0.0
30 02:55 SE 19 16.09 Overcast OVC015 25.4 22.9 86% 27 75.74 0.0
30 02:35 E 15 16.09 Overcast OVC013 25.5 23 86% 27 75.77 0.0
30 02:15 E 19 16.09 Overcast OVC013 25.5 23 86% 27 75.77 0.0
30 01:55 E 17 16.09 Overcast OVC013 25.5 23.1 87% 27 75.79 0.0
30 01:35 E 17 16.09 Overcast OVC011 25.4 22.9 86% 27 75.79 0.0
30 01:15 E 15 16.09 Mostly Cloudy BKN009 25.4 23.1 87% 27 75.79 0.0
30 00:55 SE 20 16.09 Mostly Cloudy BKN009 25.4 23 26.9 25.3 87% 27 75.77 0.0
30 00:35 SE 20 16.09 Overcast OVC009 25.4 23.1 87% 27 75.77 0.0
30 00:15 SE 19 16.09 Mostly Cloudy BKN009 25.4 23.2 88% 27 75.77 0.0
29 23:55 SE 20 16.09 Partly Cloudy SCT009 25.4 23.2 88% 27 75.79 0.0
29 23:35 E 17 16.09 Partly Cloudy SCT009 25.5 23.3 88% 27 75.82 0.0
29 23:15 SE 17 16.09 Partly Cloudy SCT011 25.6 23.3 87% 27 75.79 0.0
29 22:55 SE 17 16.09 Partly Cloudy SCT011 25.6 23.3 87% 27 75.79 0.0
29 22:35 SE 19 16.09 Mostly Cloudy BKN011 25.6 23.3 87% 27 75.79 0.0
29 22:15 SE 20 16.09 Mostly Cloudy BKN011 25.6 23.3 87% 27 75.77 0.0
29 21:55 SE 19 16.09 Fair CLR 25.6 23.3 87% 27 75.79 0.0
29 21:35 SE 15 16.09 Fair CLR 25.8 23.3 86% 27 75.77 0.0
29 21:15 SE 15 16.09 Partly Cloudy SCT013 25.9 23.2 85% 28 75.74 0.0
29 20:55 SE 19 16.09 Partly Cloudy SCT013 26 23.1 84% 28 75.74 0.0
29 20:35 SE 13 16.09 Partly Cloudy SCT013 26.1 23 83% 28 75.74 0.0
29 20:15 SE 17 16.09 Partly Cloudy SCT013 26.1 22.9 83% 28 75.72 0.0
29 19:55 SE 15 16.09 Mostly Cloudy BKN015 26.2 22.9 82% 28 75.72 0.0
29 19:35 SE 17 16.09 Mostly Cloudy BKN015 26.4 22.9 81% 29 75.67 0.0
29 19:15 SE 19 16.09 Mostly Cloudy BKN015 26.7 22.9 80% 29 75.67 0.0
29 18:55 SE 17 16.09 Mostly Cloudy BKN013 26.7 22.8 28.7 26.7 79% 29 75.67 0.0
29 18:35 SE 19 16.09 Mostly Cloudy BKN013 27 22.9 78% 30 75.67 0.0
29 18:15 SE 20 16.09 Mostly Cloudy BKN013 26.9 23 79% 29 75.64 0.0
29 17:55 SE 22 16.09 Partly Cloudy SCT013 27.6 23.1 77% 31 75.64 0.0
29 17:35 SE 24 16.09 Partly Cloudy SCT013 27.9 23 75% 31 75.64 0.0
Date Time (cdt) Wind (kph) Vis. (km) Weather Sky Cond. Air Dwpt Max. Min. Relative Humidity Wind Chill (°C) Heat Index (°C) altimeter (cm) sea level (mb) 1 hr 3 hr 6 hr
6 hour
Temperature (ºC) Pressure Precipitation (cm)